Strona główna
METAR-TAF:

METAR-TAF

Lotnisko :

Ndżamena, Czad

Port lotniczy Ndżamena

Szerokość geograficzna: 12-08N, Długość geograficzna: 015-02E, wysokość: 295 m

Aktualna obserwacja pogody

Raport powstał 39 minut temu, godzina 03:00 UTC
Wiatr 3 kt od północno-północny zachód
Temperatura 14°C
Wilgotność 19%
Ciśnienie 1012 hPa
Widzialność: 6000 m

METAR: FTTJ 180300Z 34003KT 6000 NSC 14/M09 Q1012 NOSIG

czas: 04:39 (03:39 UTC)

Prognoza

Raport powstał 3 godziny i 57 minut temu, godzina 23:42 UTC
Prognoza ważna od 18 godzina 00 UTC do 19 godzina 06 UTC
Wiatr 7 kt od północ
Widzialność: 8000 m

TAF: FTTJ 172342Z 1800/1906 01007KT 8000 NSC

Obserwacja i prognoza pogody dla ponad 4000 lotnisk (raport METAR i TAF).

Dostępne stacje oznaczono żółtymi i czerwonymi punktami na mapie.

Najedź kursorem aby zobaczyć nazwę stacji.

Kliknij aby zobaczyć obserwacje i prognozy pogody.

Aby zmienić mapę: kliknij na zielony przycisk z czarnym krzyżykiem, aby powiększyć; na zielony przycisk z myślnikiem, aby pomniejszyć; na zielone strzałki, aby przejść do map sąsiednich.


METAR-TAF: